sensor_id;sensor_type;location;lat;lon;timestamp;P1;durP1;ratioP1;P2;durP2;ratioP2
76863;SDS011;65834;52.364;9.754;2024-03-07T00:01:58;16.63;;;7.80;;
76863;SDS011;65834;52.364;9.754;2024-03-07T00:04:29;17.17;;;7.67;;
76863;SDS011;65834;52.364;9.754;2024-03-07T00:06:59;18.30;;;9.30;;
76863;SDS011;65834;52.364;9.754;2024-03-07T00:09:31;18.20;;;8.30;;
76863;SDS011;65834;52.364;9.754;2024-03-07T00:12:01;16.87;;;8.77;;
76863;SDS011;65834;52.364;9.754;2024-03-07T00:14:32;20.43;;;8.63;;
76863;SDS011;65834;52.364;9.754;2024-03-07T00:17:04;17.53;;;8.77;;
76863;SDS011;65834;52.364;9.754;2024-03-07T00:19:34;14.80;;;8.20;;
76863;SDS011;65834;52.364;9.754;2024-03-07T00:22:04;17.07;;;8.77;;
76863;SDS011;65834;52.364;9.754;2024-03-07T00:24:33;17.27;;;8.97;;
76863;SDS011;65834;52.364;9.754;2024-03-07T00:27:04;16.87;;;7.77;;
76863;SDS011;65834;52.364;9.754;2024-03-07T00:29:33;17.60;;;8.30;;
76863;SDS011;65834;52.364;9.754;2024-03-07T00:32:07;16.57;;;8.10;;
76863;SDS011;65834;52.364;9.754;2024-03-07T00:34:40;16.60;;;8.17;;
76863;SDS011;65834;52.364;9.754;2024-03-07T00:37:10;17.83;;;7.90;;
76863;SDS011;65834;52.364;9.754;2024-03-07T00:39:40;16.67;;;7.93;;
76863;SDS011;65834;52.364;9.754;2024-03-07T00:42:10;18.50;;;8.33;;
76863;SDS011;65834;52.364;9.754;2024-03-07T00:44:40;17.40;;;7.70;;
76863;SDS011;65834;52.364;9.754;2024-03-07T00:47:12;17.17;;;8.70;;
76863;SDS011;65834;52.364;9.754;2024-03-07T00:49:44;15.93;;;8.30;;
76863;SDS011;65834;52.364;9.754;2024-03-07T00:52:14;16.73;;;8.17;;
76863;SDS011;65834;52.364;9.754;2024-03-07T00:54:44;17.33;;;7.30;;
76863;SDS011;65834;52.364;9.754;2024-03-07T00:57:14;16.60;;;7.77;;
76863;SDS011;65834;52.364;9.754;2024-03-07T00:59:44;18.00;;;8.03;;
76863;SDS011;65834;52.364;9.754;2024-03-07T01:02:17;16.80;;;7.47;;
76863;SDS011;65834;52.364;9.754;2024-03-07T01:04:47;18.05;;;8.10;;
76863;SDS011;65834;52.364;9.754;2024-03-07T01:07:17;16.20;;;8.30;;
76863;SDS011;65834;52.364;9.754;2024-03-07T01:09:47;14.77;;;7.20;;
76863;SDS011;65834;52.364;9.754;2024-03-07T01:12:18;17.70;;;7.67;;
76863;SDS011;65834;52.364;9.754;2024-03-07T01:14:50;15.98;;;7.43;;
76863;SDS011;65834;52.364;9.754;2024-03-07T01:17:23;16.57;;;7.53;;
76863;SDS011;65834;52.364;9.754;2024-03-07T01:19:53;15.35;;;7.88;;
76863;SDS011;65834;52.364;9.754;2024-03-07T01:22:22;16.33;;;7.60;;
76863;SDS011;65834;52.364;9.754;2024-03-07T01:24:52;16.30;;;8.10;;
76863;SDS011;65834;52.364;9.754;2024-03-07T01:27:21;17.00;;;7.57;;
76863;SDS011;65834;52.364;9.754;2024-03-07T01:29:52;16.20;;;7.67;;
76863;SDS011;65834;52.364;9.754;2024-03-07T01:32:24;15.70;;;8.10;;
76863;SDS011;65834;52.364;9.754;2024-03-07T01:34:54;16.05;;;8.27;;
76863;SDS011;65834;52.364;9.754;2024-03-07T01:37:24;16.90;;;8.57;;
76863;SDS011;65834;52.364;9.754;2024-03-07T01:39:55;18.07;;;8.37;;
76863;SDS011;65834;52.364;9.754;2024-03-07T01:42:25;17.30;;;8.63;;
76863;SDS011;65834;52.364;9.754;2024-03-07T01:44:54;15.03;;;7.97;;
76863;SDS011;65834;52.364;9.754;2024-03-07T01:47:28;16.43;;;7.67;;
76863;SDS011;65834;52.364;9.754;2024-03-07T01:49:58;16.23;;;7.38;;
76863;SDS011;65834;52.364;9.754;2024-03-07T01:52:28;18.00;;;8.27;;
76863;SDS011;65834;52.364;9.754;2024-03-07T01:54:57;16.80;;;7.83;;
76863;SDS011;65834;52.364;9.754;2024-03-07T01:57:27;17.33;;;8.20;;
76863;SDS011;65834;52.364;9.754;2024-03-07T01:59:57;15.87;;;7.67;;
76863;SDS011;65834;52.364;9.754;2024-03-07T02:02:34;15.10;;;7.50;;
76863;SDS011;65834;52.364;9.754;2024-03-07T02:05:05;15.55;;;7.43;;
76863;SDS011;65834;52.364;9.754;2024-03-07T02:07:35;16.90;;;8.17;;
76863;SDS011;65834;52.364;9.754;2024-03-07T02:10:05;16.10;;;8.20;;
76863;SDS011;65834;52.364;9.754;2024-03-07T02:12:36;14.90;;;7.33;;
76863;SDS011;65834;52.364;9.754;2024-03-07T02:15:05;17.27;;;8.47;;
76863;SDS011;65834;52.364;9.754;2024-03-07T02:17:38;17.47;;;7.83;;
76863;SDS011;65834;52.364;9.754;2024-03-07T02:20:10;16.60;;;7.57;;
76863;SDS011;65834;52.364;9.754;2024-03-07T02:22:43;17.03;;;8.00;;
76863;SDS011;65834;52.364;9.754;2024-03-07T02:25:13;16.17;;;7.68;;
76863;SDS011;65834;52.364;9.754;2024-03-07T02:27:43;16.73;;;7.53;;
76863;SDS011;65834;52.364;9.754;2024-03-07T02:30:13;16.50;;;8.47;;
76863;SDS011;65834;52.364;9.754;2024-03-07T02:32:45;16.13;;;8.20;;
76863;SDS011;65834;52.364;9.754;2024-03-07T02:35:20;17.13;;;8.60;;
76863;SDS011;65834;52.364;9.754;2024-03-07T02:37:53;18.80;;;8.13;;
76863;SDS011;65834;52.364;9.754;2024-03-07T02:40:22;18.83;;;8.48;;
76863;SDS011;65834;52.364;9.754;2024-03-07T02:42:52;15.83;;;8.10;;
76863;SDS011;65834;52.364;9.754;2024-03-07T02:45:22;15.37;;;7.57;;
76863;SDS011;65834;52.364;9.754;2024-03-07T02:47:51;16.93;;;7.87;;
76863;SDS011;65834;52.364;9.754;2024-03-07T02:50:21;16.87;;;8.00;;
76863;SDS011;65834;52.364;9.754;2024-03-07T02:52:54;17.27;;;8.50;;
76863;SDS011;65834;52.364;9.754;2024-03-07T02:55:23;19.40;;;8.07;;
76863;SDS011;65834;52.364;9.754;2024-03-07T02:57:53;16.97;;;8.10;;
76863;SDS011;65834;52.364;9.754;2024-03-07T03:00:25;17.67;;;8.60;;
76863;SDS011;65834;52.364;9.754;2024-03-07T03:02:56;17.23;;;8.67;;
76863;SDS011;65834;52.364;9.754;2024-03-07T03:05:26;17.80;;;8.40;;
76863;SDS011;65834;52.364;9.754;2024-03-07T03:07:59;16.37;;;8.40;;
76863;SDS011;65834;52.364;9.754;2024-03-07T03:10:28;17.13;;;8.20;;
76863;SDS011;65834;52.364;9.754;2024-03-07T03:13:00;21.03;;;8.47;;
76863;SDS011;65834;52.364;9.754;2024-03-07T03:15:29;17.23;;;8.57;;
76863;SDS011;65834;52.364;9.754;2024-03-07T03:17:59;17.30;;;9.10;;
76863;SDS011;65834;52.364;9.754;2024-03-07T03:20:30;18.60;;;9.90;;
76863;SDS011;65834;52.364;9.754;2024-03-07T03:23:08;21.13;;;9.17;;
76863;SDS011;65834;52.364;9.754;2024-03-07T03:25:45;18.17;;;9.20;;
76863;SDS011;65834;52.364;9.754;2024-03-07T03:28:17;18.77;;;8.97;;
76863;SDS011;65834;52.364;9.754;2024-03-07T03:30:48;20.27;;;9.37;;
76863;SDS011;65834;52.364;9.754;2024-03-07T03:33:19;18.17;;;9.13;;
76863;SDS011;65834;52.364;9.754;2024-03-07T03:35:50;18.40;;;9.20;;
76863;SDS011;65834;52.364;9.754;2024-03-07T03:38:24;18.17;;;9.05;;
76863;SDS011;65834;52.364;9.754;2024-03-07T03:40:54;18.33;;;9.05;;
76863;SDS011;65834;52.364;9.754;2024-03-07T03:43:24;18.10;;;8.70;;
76863;SDS011;65834;52.364;9.754;2024-03-07T03:48:26;18.97;;;9.27;;
76863;SDS011;65834;52.364;9.754;2024-03-07T03:50:55;18.40;;;9.27;;
76863;SDS011;65834;52.364;9.754;2024-03-07T03:53:28;17.73;;;8.80;;
76863;SDS011;65834;52.364;9.754;2024-03-07T03:55:57;19.92;;;10.02;;
76863;SDS011;65834;52.364;9.754;2024-03-07T03:58:27;20.33;;;10.83;;
76863;SDS011;65834;52.364;9.754;2024-03-07T04:00:57;18.47;;;9.87;;
76863;SDS011;65834;52.364;9.754;2024-03-07T04:03:27;20.47;;;9.73;;
76863;SDS011;65834;52.364;9.754;2024-03-07T04:05:57;20.20;;;10.37;;
76863;SDS011;65834;52.364;9.754;2024-03-07T04:08:29;19.73;;;9.20;;
76863;SDS011;65834;52.364;9.754;2024-03-07T04:10:59;21.77;;;10.48;;
76863;SDS011;65834;52.364;9.754;2024-03-07T04:13:28;18.23;;;9.90;;
76863;SDS011;65834;52.364;9.754;2024-03-07T04:15:58;20.83;;;9.90;;
76863;SDS011;65834;52.364;9.754;2024-03-07T04:18:28;19.40;;;9.77;;
76863;SDS011;65834;52.364;9.754;2024-03-07T04:20:59;20.50;;;9.83;;
76863;SDS011;65834;52.364;9.754;2024-03-07T04:23:31;19.07;;;9.30;;
76863;SDS011;65834;52.364;9.754;2024-03-07T04:26:01;20.13;;;10.25;;
76863;SDS011;65834;52.364;9.754;2024-03-07T04:28:30;19.63;;;9.30;;
76863;SDS011;65834;52.364;9.754;2024-03-07T04:31:00;19.97;;;9.47;;
76863;SDS011;65834;52.364;9.754;2024-03-07T04:33:30;22.43;;;11.03;;
76863;SDS011;65834;52.364;9.754;2024-03-07T04:35:59;21.03;;;10.00;;
76863;SDS011;65834;52.364;9.754;2024-03-07T04:38:32;18.43;;;9.60;;
76863;SDS011;65834;52.364;9.754;2024-03-07T04:41:02;19.88;;;10.13;;
76863;SDS011;65834;52.364;9.754;2024-03-07T04:43:34;22.70;;;10.17;;
76863;SDS011;65834;52.364;9.754;2024-03-07T04:46:03;18.60;;;10.60;;
76863;SDS011;65834;52.364;9.754;2024-03-07T04:48:33;20.10;;;10.27;;
76863;SDS011;65834;52.364;9.754;2024-03-07T04:51:03;21.23;;;10.57;;
76863;SDS011;65834;52.364;9.754;2024-03-07T04:53:35;21.67;;;10.07;;
76863;SDS011;65834;52.364;9.754;2024-03-07T04:56:08;20.17;;;10.83;;
76863;SDS011;65834;52.364;9.754;2024-03-07T04:58:38;21.17;;;11.00;;
76863;SDS011;65834;52.364;9.754;2024-03-07T05:01:08;20.20;;;9.73;;
76863;SDS011;65834;52.364;9.754;2024-03-07T05:03:37;22.47;;;10.83;;
76863;SDS011;65834;52.364;9.754;2024-03-07T05:06:07;21.80;;;11.20;;
76863;SDS011;65834;52.364;9.754;2024-03-07T05:08:39;19.50;;;10.00;;
76863;SDS011;65834;52.364;9.754;2024-03-07T05:11:11;20.67;;;10.53;;
76863;SDS011;65834;52.364;9.754;2024-03-07T05:13:40;21.83;;;11.13;;
76863;SDS011;65834;52.364;9.754;2024-03-07T05:16:10;23.17;;;12.07;;
76863;SDS011;65834;52.364;9.754;2024-03-07T05:18:40;21.93;;;10.83;;
76863;SDS011;65834;52.364;9.754;2024-03-07T05:21:10;22.13;;;10.67;;
76863;SDS011;65834;52.364;9.754;2024-03-07T05:23:54;22.70;;;11.30;;
76863;SDS011;65834;52.364;9.754;2024-03-07T05:26:24;23.60;;;11.30;;
76863;SDS011;65834;52.364;9.754;2024-03-07T05:28:54;23.50;;;12.47;;
76863;SDS011;65834;52.364;9.754;2024-03-07T05:31:23;24.00;;;11.70;;
76863;SDS011;65834;52.364;9.754;2024-03-07T05:33:53;25.90;;;12.43;;
76863;SDS011;65834;52.364;9.754;2024-03-07T05:36:23;22.17;;;11.40;;
76863;SDS011;65834;52.364;9.754;2024-03-07T05:38:55;24.07;;;11.83;;
76863;SDS011;65834;52.364;9.754;2024-03-07T05:41:25;24.27;;;11.20;;
76863;SDS011;65834;52.364;9.754;2024-03-07T05:43:57;28.77;;;13.50;;
76863;SDS011;65834;52.364;9.754;2024-03-07T05:46:27;25.13;;;13.07;;
76863;SDS011;65834;52.364;9.754;2024-03-07T05:48:56;24.90;;;13.67;;
76863;SDS011;65834;52.364;9.754;2024-03-07T05:51:26;26.03;;;13.73;;
76863;SDS011;65834;52.364;9.754;2024-03-07T05:53:58;27.60;;;13.63;;
76863;SDS011;65834;52.364;9.754;2024-03-07T05:56:28;26.98;;;13.88;;
76863;SDS011;65834;52.364;9.754;2024-03-07T05:58:58;26.50;;;13.67;;
76863;SDS011;65834;52.364;9.754;2024-03-07T06:01:30;25.33;;;13.48;;
76863;SDS011;65834;52.364;9.754;2024-03-07T06:04:01;26.23;;;13.37;;
76863;SDS011;65834;52.364;9.754;2024-03-07T06:06:32;26.80;;;13.77;;
76863;SDS011;65834;52.364;9.754;2024-03-07T06:09:07;30.60;;;14.20;;
76863;SDS011;65834;52.364;9.754;2024-03-07T06:11:40;29.70;;;14.50;;
76863;SDS011;65834;52.364;9.754;2024-03-07T06:14:11;30.30;;;14.00;;
76863;SDS011;65834;52.364;9.754;2024-03-07T06:16:41;32.00;;;14.83;;
76863;SDS011;65834;52.364;9.754;2024-03-07T06:19:11;32.70;;;15.30;;
76863;SDS011;65834;52.364;9.754;2024-03-07T06:21:41;32.43;;;16.37;;
76863;SDS011;65834;52.364;9.754;2024-03-07T06:24:13;32.13;;;16.27;;
76863;SDS011;65834;52.364;9.754;2024-03-07T06:26:45;31.90;;;15.97;;
76863;SDS011;65834;52.364;9.754;2024-03-07T06:29:26;30.70;;;14.77;;
76863;SDS011;65834;52.364;9.754;2024-03-07T06:31:56;38.83;;;16.47;;
76863;SDS011;65834;52.364;9.754;2024-03-07T06:34:26;33.73;;;15.83;;
76863;SDS011;65834;52.364;9.754;2024-03-07T06:36:57;31.13;;;15.23;;
76863;SDS011;65834;52.364;9.754;2024-03-07T06:39:31;37.53;;;16.93;;
76863;SDS011;65834;52.364;9.754;2024-03-07T06:42:01;38.55;;;16.55;;
76863;SDS011;65834;52.364;9.754;2024-03-07T06:44:32;31.20;;;16.97;;
76863;SDS011;65834;52.364;9.754;2024-03-07T06:47:01;35.57;;;17.03;;
76863;SDS011;65834;52.364;9.754;2024-03-07T06:49:32;37.07;;;17.60;;
76863;SDS011;65834;52.364;9.754;2024-03-07T06:52:02;34.80;;;16.27;;
76863;SDS011;65834;52.364;9.754;2024-03-07T06:54:34;37.50;;;16.57;;
76863;SDS011;65834;52.364;9.754;2024-03-07T06:57:04;37.92;;;17.80;;
76863;SDS011;65834;52.364;9.754;2024-03-07T06:59:34;40.07;;;17.13;;
76863;SDS011;65834;52.364;9.754;2024-03-07T07:02:05;39.13;;;17.63;;
76863;SDS011;65834;52.364;9.754;2024-03-07T07:04:35;32.93;;;18.83;;
76863;SDS011;65834;52.364;9.754;2024-03-07T07:07:08;35.47;;;18.27;;
76863;SDS011;65834;52.364;9.754;2024-03-07T07:09:42;38.00;;;17.17;;
76863;SDS011;65834;52.364;9.754;2024-03-07T07:12:11;38.70;;;19.05;;
76863;SDS011;65834;52.364;9.754;2024-03-07T07:14:41;45.17;;;18.40;;
76863;SDS011;65834;52.364;9.754;2024-03-07T07:17:11;36.77;;;18.57;;
76863;SDS011;65834;52.364;9.754;2024-03-07T07:19:41;39.23;;;18.40;;
76863;SDS011;65834;52.364;9.754;2024-03-07T07:22:11;36.90;;;17.90;;
76863;SDS011;65834;52.364;9.754;2024-03-07T07:24:43;39.70;;;18.10;;
76863;SDS011;65834;52.364;9.754;2024-03-07T07:27:12;40.33;;;18.02;;
76863;SDS011;65834;52.364;9.754;2024-03-07T07:29:42;37.73;;;17.27;;
76863;SDS011;65834;52.364;9.754;2024-03-07T07:32:12;36.70;;;17.37;;
76863;SDS011;65834;52.364;9.754;2024-03-07T07:34:43;36.77;;;18.07;;
76863;SDS011;65834;52.364;9.754;2024-03-07T07:37:12;38.17;;;16.80;;
76863;SDS011;65834;52.364;9.754;2024-03-07T07:39:44;36.83;;;17.87;;
76863;SDS011;65834;52.364;9.754;2024-03-07T07:42:14;40.08;;;18.65;;
76863;SDS011;65834;52.364;9.754;2024-03-07T07:44:44;38.23;;;18.23;;
76863;SDS011;65834;52.364;9.754;2024-03-07T07:47:14;38.50;;;18.67;;
76863;SDS011;65834;52.364;9.754;2024-03-07T07:49:44;37.57;;;18.40;;
76863;SDS011;65834;52.364;9.754;2024-03-07T07:52:14;38.43;;;17.80;;
76863;SDS011;65834;52.364;9.754;2024-03-07T07:54:46;36.43;;;17.73;;
76863;SDS011;65834;52.364;9.754;2024-03-07T07:57:16;38.45;;;18.33;;
76863;SDS011;65834;52.364;9.754;2024-03-07T07:59:46;34.73;;;18.53;;
76863;SDS011;65834;52.364;9.754;2024-03-07T08:02:16;33.87;;;17.70;;
76863;SDS011;65834;52.364;9.754;2024-03-07T08:04:48;38.13;;;15.77;;
76863;SDS011;65834;52.364;9.754;2024-03-07T08:07:18;33.70;;;16.03;;
76863;SDS011;65834;52.364;9.754;2024-03-07T08:09:50;32.10;;;16.00;;
76863;SDS011;65834;52.364;9.754;2024-03-07T08:12:20;30.75;;;15.48;;
76863;SDS011;65834;52.364;9.754;2024-03-07T08:14:49;33.37;;;16.13;;
76863;SDS011;65834;52.364;9.754;2024-03-07T08:17:19;34.67;;;16.43;;
76863;SDS011;65834;52.364;9.754;2024-03-07T08:19:49;39.37;;;17.33;;
76863;SDS011;65834;52.364;9.754;2024-03-07T08:22:19;32.57;;;15.80;;
76863;SDS011;65834;52.364;9.754;2024-03-07T08:24:51;31.90;;;17.07;;
76863;SDS011;65834;52.364;9.754;2024-03-07T08:27:21;33.17;;;15.32;;
76863;SDS011;65834;52.364;9.754;2024-03-07T08:29:50;32.50;;;17.63;;
76863;SDS011;65834;52.364;9.754;2024-03-07T08:32:21;34.57;;;15.60;;
76863;SDS011;65834;52.364;9.754;2024-03-07T08:34:50;30.80;;;15.47;;
76863;SDS011;65834;52.364;9.754;2024-03-07T08:37:21;32.30;;;15.53;;
76863;SDS011;65834;52.364;9.754;2024-03-07T08:39:53;30.67;;;16.67;;
76863;SDS011;65834;52.364;9.754;2024-03-07T08:42:23;32.25;;;15.73;;
76863;SDS011;65834;52.364;9.754;2024-03-07T08:44:53;33.67;;;17.33;;
76863;SDS011;65834;52.364;9.754;2024-03-07T08:47:23;35.30;;;17.50;;
76863;SDS011;65834;52.364;9.754;2024-03-07T08:49:53;33.10;;;16.47;;
76863;SDS011;65834;52.364;9.754;2024-03-07T08:52:22;37.57;;;18.40;;
76863;SDS011;65834;52.364;9.754;2024-03-07T08:54:55;36.20;;;15.70;;
76863;SDS011;65834;52.364;9.754;2024-03-07T08:57:24;35.03;;;16.88;;
76863;SDS011;65834;52.364;9.754;2024-03-07T08:59:54;36.07;;;15.33;;
76863;SDS011;65834;52.364;9.754;2024-03-07T09:02:24;33.37;;;16.27;;
76863;SDS011;65834;52.364;9.754;2024-03-07T09:04:54;36.17;;;15.87;;
76863;SDS011;65834;52.364;9.754;2024-03-07T09:07:23;34.93;;;17.10;;
76863;SDS011;65834;52.364;9.754;2024-03-07T09:09:56;34.50;;;16.43;;
76863;SDS011;65834;52.364;9.754;2024-03-07T09:12:25;36.53;;;16.48;;
76863;SDS011;65834;52.364;9.754;2024-03-07T09:14:55;36.40;;;16.33;;
76863;SDS011;65834;52.364;9.754;2024-03-07T09:17:25;34.57;;;16.27;;
76863;SDS011;65834;52.364;9.754;2024-03-07T09:19:55;38.80;;;16.33;;
76863;SDS011;65834;52.364;9.754;2024-03-07T09:22:24;32.53;;;15.20;;
76863;SDS011;65834;52.364;9.754;2024-03-07T09:24:58;34.80;;;15.60;;
76863;SDS011;65834;52.364;9.754;2024-03-07T09:27:28;38.70;;;16.52;;
76863;SDS011;65834;52.364;9.754;2024-03-07T09:29:58;30.87;;;14.37;;
76863;SDS011;65834;52.364;9.754;2024-03-07T09:32:27;31.70;;;15.17;;
76863;SDS011;65834;52.364;9.754;2024-03-07T09:34:59;29.80;;;14.90;;
76863;SDS011;65834;52.364;9.754;2024-03-07T09:37:29;32.33;;;15.47;;
76863;SDS011;65834;52.364;9.754;2024-03-07T09:40:02;29.40;;;14.80;;
76863;SDS011;65834;52.364;9.754;2024-03-07T09:45:03;27.33;;;13.10;;
76863;SDS011;65834;52.364;9.754;2024-03-07T09:47:35;28.15;;;14.45;;
76863;SDS011;65834;52.364;9.754;2024-03-07T09:50:06;28.33;;;13.80;;
76863;SDS011;65834;52.364;9.754;2024-03-07T09:52:37;30.77;;;14.40;;
76863;SDS011;65834;52.364;9.754;2024-03-07T09:55:11;30.35;;;14.48;;
76863;SDS011;65834;52.364;9.754;2024-03-07T09:57:41;31.02;;;14.73;;
76863;SDS011;65834;52.364;9.754;2024-03-07T10:00:12;29.73;;;14.33;;
76863;SDS011;65834;52.364;9.754;2024-03-07T10:02:53;33.97;;;15.13;;
76863;SDS011;65834;52.364;9.754;2024-03-07T10:05:26;30.63;;;15.33;;
76863;SDS011;65834;52.364;9.754;2024-03-07T10:07:57;32.07;;;14.17;;
76863;SDS011;65834;52.364;9.754;2024-03-07T10:10:30;30.00;;;14.50;;
76863;SDS011;65834;52.364;9.754;2024-03-07T10:13:00;30.98;;;15.15;;
76863;SDS011;65834;52.364;9.754;2024-03-07T10:15:30;29.70;;;13.03;;
76863;SDS011;65834;52.364;9.754;2024-03-07T10:18:01;33.57;;;14.63;;
76863;SDS011;65834;52.364;9.754;2024-03-07T10:20:31;33.90;;;14.97;;
76863;SDS011;65834;52.364;9.754;2024-03-07T10:23:02;33.47;;;14.30;;
76863;SDS011;65834;52.364;9.754;2024-03-07T10:25:36;30.73;;;14.30;;
76863;SDS011;65834;52.364;9.754;2024-03-07T10:28:07;31.75;;;14.13;;
76863;SDS011;65834;52.364;9.754;2024-03-07T10:30:41;31.07;;;14.20;;
76863;SDS011;65834;52.364;9.754;2024-03-07T10:33:11;31.93;;;15.13;;
76863;SDS011;65834;52.364;9.754;2024-03-07T10:35:46;32.00;;;15.10;;
76863;SDS011;65834;52.364;9.754;2024-03-07T10:38:16;32.77;;;15.13;;
76863;SDS011;65834;52.364;9.754;2024-03-07T10:40:52;32.17;;;14.40;;
76863;SDS011;65834;52.364;9.754;2024-03-07T10:43:23;30.90;;;15.47;;
76863;SDS011;65834;52.364;9.754;2024-03-07T10:45:54;30.10;;;14.17;;
76863;SDS011;65834;52.364;9.754;2024-03-07T10:48:29;35.07;;;15.33;;
76863;SDS011;65834;52.364;9.754;2024-03-07T10:51:06;32.07;;;14.63;;
76863;SDS011;65834;52.364;9.754;2024-03-07T10:56:40;33.83;;;14.40;;
76863;SDS011;65834;52.364;9.754;2024-03-07T10:59:26;32.10;;;14.57;;
76863;SDS011;65834;52.364;9.754;2024-03-07T11:01:58;31.87;;;13.23;;
76863;SDS011;65834;52.364;9.754;2024-03-07T11:04:30;35.33;;;14.23;;
76863;SDS011;65834;52.364;9.754;2024-03-07T11:07:01;30.57;;;13.07;;
76863;SDS011;65834;52.364;9.754;2024-03-07T11:09:31;33.80;;;14.63;;
76863;SDS011;65834;52.364;9.754;2024-03-07T11:12:05;31.97;;;14.60;;
76863;SDS011;65834;52.364;9.754;2024-03-07T11:14:36;31.03;;;14.07;;
76863;SDS011;65834;52.364;9.754;2024-03-07T11:17:08;33.10;;;14.90;;
76863;SDS011;65834;52.364;9.754;2024-03-07T11:19:39;32.97;;;13.97;;
76863;SDS011;65834;52.364;9.754;2024-03-07T11:22:13;35.38;;;14.48;;
76863;SDS011;65834;52.364;9.754;2024-03-07T11:25:02;32.33;;;14.27;;
76863;SDS011;65834;52.364;9.754;2024-03-07T11:27:40;38.00;;;15.33;;
76863;SDS011;65834;52.364;9.754;2024-03-07T11:30:20;30.95;;;14.57;;
76863;SDS011;65834;52.364;9.754;2024-03-07T11:32:51;35.13;;;15.23;;
76863;SDS011;65834;52.364;9.754;2024-03-07T11:35:30;35.77;;;15.87;;
76863;SDS011;65834;52.364;9.754;2024-03-07T11:38:05;33.87;;;15.70;;
76863;SDS011;65834;52.364;9.754;2024-03-07T11:40:43;34.53;;;15.57;;
76863;SDS011;65834;52.364;9.754;2024-03-07T11:43:16;35.23;;;14.63;;
76863;SDS011;65834;52.364;9.754;2024-03-07T11:45:45;30.92;;;15.02;;
76863;SDS011;65834;52.364;9.754;2024-03-07T11:48:19;33.27;;;15.40;;
76863;SDS011;65834;52.364;9.754;2024-03-07T11:50:49;35.57;;;15.60;;
76863;SDS011;65834;52.364;9.754;2024-03-07T11:53:21;38.53;;;16.13;;
76863;SDS011;65834;52.364;9.754;2024-03-07T11:55:51;31.50;;;15.40;;
76863;SDS011;65834;52.364;9.754;2024-03-07T11:58:23;32.50;;;14.93;;
76863;SDS011;65834;52.364;9.754;2024-03-07T12:00:58;29.40;;;14.30;;
76863;SDS011;65834;52.364;9.754;2024-03-07T12:03:29;29.47;;;14.40;;
76863;SDS011;65834;52.364;9.754;2024-03-07T12:06:00;33.10;;;14.47;;
76863;SDS011;65834;52.364;9.754;2024-03-07T12:08:30;29.87;;;13.30;;
76863;SDS011;65834;52.364;9.754;2024-03-07T12:11:00;26.50;;;13.20;;
76863;SDS011;65834;52.364;9.754;2024-03-07T12:13:32;26.10;;;11.90;;
76863;SDS011;65834;52.364;9.754;2024-03-07T12:16:02;32.90;;;14.93;;
76863;SDS011;65834;52.364;9.754;2024-03-07T12:18:34;29.42;;;13.05;;
76863;SDS011;65834;52.364;9.754;2024-03-07T12:21:05;26.03;;;13.07;;
76863;SDS011;65834;52.364;9.754;2024-03-07T12:23:37;25.37;;;13.13;;
76863;SDS011;65834;52.364;9.754;2024-03-07T12:26:07;28.43;;;13.07;;
76863;SDS011;65834;52.364;9.754;2024-03-07T12:28:44;30.40;;;16.23;;
76863;SDS011;65834;52.364;9.754;2024-03-07T12:31:14;29.83;;;14.13;;
76863;SDS011;65834;52.364;9.754;2024-03-07T12:33:44;28.37;;;13.17;;
76863;SDS011;65834;52.364;9.754;2024-03-07T12:36:18;28.20;;;12.90;;
76863;SDS011;65834;52.364;9.754;2024-03-07T12:38:52;28.73;;;13.27;;
76863;SDS011;65834;52.364;9.754;2024-03-07T12:41:23;27.37;;;12.90;;
76863;SDS011;65834;52.364;9.754;2024-03-07T12:43:55;26.80;;;12.73;;
76863;SDS011;65834;52.364;9.754;2024-03-07T12:46:27;25.17;;;12.20;;
76863;SDS011;65834;52.364;9.754;2024-03-07T12:48:57;28.00;;;12.30;;
76863;SDS011;65834;52.364;9.754;2024-03-07T12:51:27;26.50;;;13.43;;
76863;SDS011;65834;52.364;9.754;2024-03-07T12:53:57;25.20;;;11.17;;
76863;SDS011;65834;52.364;9.754;2024-03-07T12:56:26;28.97;;;13.53;;
76863;SDS011;65834;52.364;9.754;2024-03-07T12:59:04;30.97;;;14.10;;
76863;SDS011;65834;52.364;9.754;2024-03-07T13:01:35;30.67;;;14.80;;
76863;SDS011;65834;52.364;9.754;2024-03-07T13:04:11;31.73;;;14.53;;
76863;SDS011;65834;52.364;9.754;2024-03-07T13:06:41;30.47;;;12.90;;
76863;SDS011;65834;52.364;9.754;2024-03-07T13:09:13;30.23;;;13.03;;
76863;SDS011;65834;52.364;9.754;2024-03-07T13:11:53;29.40;;;14.17;;
76863;SDS011;65834;52.364;9.754;2024-03-07T13:14:26;29.17;;;13.43;;
76863;SDS011;65834;52.364;9.754;2024-03-07T13:16:59;29.07;;;13.00;;
76863;SDS011;65834;52.364;9.754;2024-03-07T13:19:29;29.70;;;13.23;;
76863;SDS011;65834;52.364;9.754;2024-03-07T13:21:59;24.40;;;12.47;;
76863;SDS011;65834;52.364;9.754;2024-03-07T13:24:30;26.10;;;13.10;;
76863;SDS011;65834;52.364;9.754;2024-03-07T13:27:01;30.83;;;14.57;;
76863;SDS011;65834;52.364;9.754;2024-03-07T13:29:40;27.97;;;12.73;;
76863;SDS011;65834;52.364;9.754;2024-03-07T13:32:11;29.37;;;13.77;;
76863;SDS011;65834;52.364;9.754;2024-03-07T13:34:41;25.53;;;12.43;;
76863;SDS011;65834;52.364;9.754;2024-03-07T13:37:12;23.77;;;12.23;;
76863;SDS011;65834;52.364;9.754;2024-03-07T13:39:44;26.38;;;13.25;;
76863;SDS011;65834;52.364;9.754;2024-03-07T13:42:14;23.97;;;11.73;;
76863;SDS011;65834;52.364;9.754;2024-03-07T13:44:47;27.83;;;12.80;;
76863;SDS011;65834;52.364;9.754;2024-03-07T13:47:16;25.63;;;12.52;;
76863;SDS011;65834;52.364;9.754;2024-03-07T13:49:47;25.67;;;13.33;;
76863;SDS011;65834;52.364;9.754;2024-03-07T13:52:16;26.33;;;12.17;;
76863;SDS011;65834;52.364;9.754;2024-03-07T13:54:46;26.90;;;13.07;;
76863;SDS011;65834;52.364;9.754;2024-03-07T13:57:21;25.17;;;12.60;;
76863;SDS011;65834;52.364;9.754;2024-03-07T14:00:15;25.93;;;12.83;;
76863;SDS011;65834;52.364;9.754;2024-03-07T14:05:58;24.73;;;11.13;;
76863;SDS011;65834;52.364;9.754;2024-03-07T14:21:20;26.13;;;11.73;;
76863;SDS011;65834;52.364;9.754;2024-03-07T14:24:33;25.13;;;10.90;;
76863;SDS011;65834;52.364;9.754;2024-03-07T14:27:18;24.80;;;11.73;;
76863;SDS011;65834;52.364;9.754;2024-03-07T14:29:56;25.63;;;11.83;;
76863;SDS011;65834;52.364;9.754;2024-03-07T14:32:38;23.97;;;12.63;;
76863;SDS011;65834;52.364;9.754;2024-03-07T14:35:14;24.50;;;11.50;;
76863;SDS011;65834;52.364;9.754;2024-03-07T14:37:55;23.30;;;11.80;;
76863;SDS011;65834;52.364;9.754;2024-03-07T14:40:35;23.97;;;10.27;;
76863;SDS011;65834;52.364;9.754;2024-03-07T14:43:05;22.50;;;10.60;;
76863;SDS011;65834;52.364;9.754;2024-03-07T14:45:36;25.43;;;11.63;;
76863;SDS011;65834;52.364;9.754;2024-03-07T14:48:10;23.17;;;10.97;;
76863;SDS011;65834;52.364;9.754;2024-03-07T14:50:42;25.52;;;12.57;;
76863;SDS011;65834;52.364;9.754;2024-03-07T14:55:48;24.20;;;11.53;;
76863;SDS011;65834;52.364;9.754;2024-03-07T14:58:18;23.87;;;11.93;;
76863;SDS011;65834;52.364;9.754;2024-03-07T15:00:49;23.20;;;11.20;;
76863;SDS011;65834;52.364;9.754;2024-03-07T15:03:23;22.37;;;10.53;;
76863;SDS011;65834;52.364;9.754;2024-03-07T15:05:56;26.60;;;12.25;;
76863;SDS011;65834;52.364;9.754;2024-03-07T15:08:28;23.93;;;12.43;;
76863;SDS011;65834;52.364;9.754;2024-03-07T15:10:59;23.42;;;11.27;;
76863;SDS011;65834;52.364;9.754;2024-03-07T15:13:43;21.73;;;10.97;;
76863;SDS011;65834;52.364;9.754;2024-03-07T15:16:14;23.03;;;11.30;;
76863;SDS011;65834;52.364;9.754;2024-03-07T15:18:54;24.33;;;11.50;;